Terminal Aerodrome Forecast
Issued by NWS

Home | Current Version | Previous Version | Text Only | Print | Product List | Glossary On
Versions: 1 2 3 4 5 6 7 8 9 10 11 12 13 14 15 16
000
FTUS43 KDLH 230500
TAFHIB
TAF
KHIB 230520Z 2306/2406 00000KT P6SM FEW250
     FM231400 14008KT P6SM BKN200
     FM232100 13010KT P6SM BKN120
     FM240100 13009KT P6SM BKN080
     FM240400 11008KT 6SM -RA SCT015 OVC030=

USA.gov is the U.S. government's official web portal to all federal, state and local government web resources and services.